Time;durP1;ratioP1;P1;durP2;ratioP2;P2;SDS_P1;SDS_P2;PMS_P1;PMS_P2;Temp;Humidity;BMP_temperature;BMP_pressure;BME280_temperature;BME280_humidity;BME280_pressure;Samples;Min_cycle;Max_cycle;Signal;HPM_P1;HPM_P2
2022/09/06 00:02:09;;;;;;;0.00;0.00;;;17.10;99.90;;;;;;5060786;28;20463;-70
2022/09/06 00:04:37;;;;;;;0.00;0.00;;;17.00;99.90;;;;;;5060918;28;20606;-71
2022/09/06 00:07:05;;;;;;;0.00;0.00;;;17.00;99.90;;;;;;5060616;28;20892;-69
2022/09/06 00:09:33;;;;;;;0.00;0.00;;;17.00;99.90;;;;;;5059409;28;20463;-70
2022/09/06 00:12:02;;;;;;;0.00;0.00;;;17.00;99.90;;;;;;5060616;28;20433;-70
2022/09/06 00:14:30;;;;;;;0.00;0.00;;;17.00;99.90;;;;;;5060743;28;20447;-70
2022/09/06 00:16:58;;;;;;;0.00;0.00;;;17.10;99.90;;;;;;5060721;28;20869;-71
2022/09/06 00:19:26;;;;;;;0.00;0.00;;;17.00;99.90;;;;;;5060164;28;20971;-71
2022/09/06 00:21:54;;;;;;;0.00;0.00;;;17.00;99.90;;;;;;5060055;28;20441;-71
2022/09/06 00:24:22;;;;;;;0.00;0.00;;;17.00;99.90;;;;;;5060595;28;20794;-71
2022/09/06 00:26:50;;;;;;;0.00;0.00;;;17.00;99.90;;;;;;5060131;28;20468;-71
2022/09/06 00:29:19;;;;;;;0.00;0.00;;;16.90;99.90;;;;;;5060295;28;20470;-71
2022/09/06 00:31:46;;;;;;;0.00;0.00;;;17.00;99.90;;;;;;5060699;28;20612;-71
2022/09/06 00:34:14;;;;;;;0.00;0.00;;;16.90;99.90;;;;;;5060469;28;20441;-72
2022/09/06 00:36:42;;;;;;;0.00;0.00;;;17.00;99.90;;;;;;5064818;28;21131;-72
2022/09/06 00:39:10;;;;;;;0.00;0.00;;;17.00;99.90;;;;;;5061381;28;21054;-71
2022/09/06 00:41:38;;;;;;;0.00;0.00;;;17.00;99.90;;;;;;5060011;28;20454;-70
2022/09/06 00:44:06;;;;;;;0.00;0.00;;;17.00;99.90;;;;;;5059920;28;20743;-73
2022/09/06 00:46:36;;;;;;;0.00;0.00;;;17.00;99.90;;;;;;5059880;28;20453;-72
2022/09/06 00:49:07;;;;;;;0.00;0.00;;;17.00;99.90;;;;;;5059515;28;20475;-73
2022/09/06 00:51:36;;;;;;;0.00;0.00;;;17.00;99.90;;;;;;5059955;28;20952;-72
2022/09/06 00:54:05;;;;;;;0.00;0.00;;;17.00;99.90;;;;;;5060056;28;20612;-72
2022/09/06 00:56:34;;;;;;;0.00;0.00;;;17.00;99.90;;;;;;5059665;28;20445;-73
2022/09/06 00:59:02;;;;;;;0.00;0.00;;;16.90;99.90;;;;;;5059643;28;20760;-70
2022/09/06 01:01:29;;;;;;;0.00;0.00;;;17.00;99.90;;;;;;5059552;28;20443;-72
2022/09/06 01:04:00;;;;;;;0.00;0.00;;;17.00;99.90;;;;;;5059718;28;20683;-72
2022/09/06 01:06:38;;;;;;;0.00;0.00;;;17.00;99.90;;;;;;5059602;28;20497;-72
2022/09/06 01:09:13;;;;;;;0.00;0.00;;;17.00;99.90;;;;;;5059520;28;20776;-72
2022/09/06 01:11:53;;;;;;;0.00;0.00;;;17.00;99.90;;;;;;5059597;28;20443;-72
2022/09/06 01:14:35;;;;;;;0.00;0.00;;;17.00;99.90;;;;;;5059760;28;20455;-72
2022/09/06 01:17:12;;;;;;;0.00;0.00;;;17.00;99.90;;;;;;5059382;28;20473;-72
2022/09/06 01:20:08;;;;;;;0.00;0.00;;;17.00;99.90;;;;;;5058910;28;20509;-72
2022/09/06 01:22:58;;;;;;;0.00;0.00;;;17.00;99.90;;;;;;5059246;28;20459;-72
2022/09/06 01:25:36;;;;;;;0.00;0.00;;;17.00;99.90;;;;;;5059068;28;20460;-72
2022/09/06 01:28:27;;;;;;;0.00;0.00;;;17.00;99.90;;;;;;5059119;28;20482;-72
2022/09/06 01:31:04;;;;;;;0.00;0.00;;;17.00;99.90;;;;;;5058840;28;20573;-72
2022/09/06 01:33:39;;;;;;;0.00;0.00;;;17.00;99.90;;;;;;5059414;28;20438;-72
2022/09/06 01:36:13;;;;;;;0.00;0.00;;;17.00;99.90;;;;;;5059234;28;21013;-70
2022/09/06 01:38:41;;;;;;;0.00;0.00;;;16.90;99.90;;;;;;5060818;28;20572;-72
2022/09/06 01:41:09;;;;;;;0.00;0.00;;;16.90;99.90;;;;;;5059288;28;21053;-72
2022/09/06 01:43:42;;;;;;;0.00;0.00;;;16.90;99.90;;;;;;5058854;28;20435;-73
2022/09/06 01:46:17;;;;;;;0.00;0.00;;;16.90;99.90;;;;;;5058788;28;20468;-73
2022/09/06 01:48:59;;;;;;;0.00;0.00;;;16.90;99.90;;;;;;5058379;28;21097;-72
2022/09/06 01:51:34;;;;;;;0.00;0.00;;;16.90;99.90;;;;;;5058480;28;20459;-72
2022/09/06 01:54:21;;;;;;;0.00;0.00;;;16.90;99.90;;;;;;5058895;28;20925;-72
2022/09/06 01:57:01;;;;;;;0.00;0.00;;;16.90;99.90;;;;;;5059000;28;20435;-74
2022/09/06 01:59:54;;;;;;;0.00;0.00;;;16.90;99.90;;;;;;5058355;28;20535;-73
2022/09/06 02:02:28;;;;;;;0.00;0.00;;;17.00;99.90;;;;;;5058884;28;20431;-73
2022/09/06 02:05:03;;;;;;;0.00;0.00;;;17.00;99.90;;;;;;5059096;28;20434;-73
2022/09/06 02:07:34;;;;;;;0.00;0.00;;;17.00;99.90;;;;;;5058646;28;21020;-73
2022/09/06 02:10:07;;;;;;;0.00;0.00;;;16.90;99.90;;;;;;5058674;28;20624;-73
2022/09/06 02:12:39;;;;;;;0.00;0.00;;;16.90;99.90;;;;;;5058706;28;20482;-74
2022/09/06 02:15:13;;;;;;;0.00;0.00;;;16.90;99.90;;;;;;5058386;28;20439;-72
2022/09/06 02:20:26;;;;;;;0.00;0.00;;;16.80;99.90;;;;;;5482398;22;20526;-71
2022/09/06 02:22:56;;;;;;;0.00;0.00;;;16.80;99.90;;;;;;5078292;28;20449;-73
2022/09/06 02:25:30;;;;;;;0.00;0.00;;;16.80;99.90;;;;;;5078673;28;20439;-71
2022/09/06 02:27:58;;;;;;;0.00;0.00;;;16.80;99.90;;;;;;5079132;28;20565;-71
2022/09/06 02:30:27;;;;;;;0.00;0.00;;;16.90;99.90;;;;;;5060602;28;20464;-72
2022/09/06 02:32:58;;;;;;;0.00;0.00;;;16.90;99.90;;;;;;5057816;28;20872;-70
2022/09/06 02:35:26;;;;;;;0.00;0.00;;;16.90;99.90;;;;;;5058751;28;20703;-72
2022/09/06 02:37:55;;;;;;;0.00;0.00;;;16.90;99.90;;;;;;5059933;28;20722;-72
2022/09/06 02:40:23;;;;;;;0.00;0.00;;;16.90;99.90;;;;;;5063351;28;20462;-74
2022/09/06 02:42:52;;;;;;;0.00;0.00;;;16.90;99.90;;;;;;5066553;28;20448;-71
2022/09/06 02:45:20;;;;;;;0.00;0.00;;;16.90;99.90;;;;;;5061692;28;20547;-73
2022/09/06 02:47:49;;;;;;;0.00;0.00;;;16.90;99.90;;;;;;5069410;28;20457;-72
2022/09/06 02:50:17;;;;;;;0.00;0.00;;;16.80;99.90;;;;;;5069356;28;20459;-73
2022/09/06 02:52:44;;;;;;;0.00;0.00;;;16.70;99.90;;;;;;5062632;28;20451;-72
2022/09/06 02:55:12;;;;;;;0.00;0.00;;;16.70;99.90;;;;;;5062742;28;20506;-70
2022/09/06 02:57:40;;;;;;;0.00;0.00;;;16.70;99.90;;;;;;5060912;28;20698;-71
2022/09/06 03:00:09;;;;;;;0.00;0.00;;;16.70;99.90;;;;;;5058663;28;20463;-71
2022/09/06 03:02:37;;;;;;;0.00;0.00;;;16.80;99.90;;;;;;5067309;28;20661;-69
2022/09/06 03:05:07;;;;;;;0.00;0.00;;;16.80;99.90;;;;;;5067074;28;20443;-70
2022/09/06 03:07:35;;;;;;;0.00;0.00;;;16.80;99.90;;;;;;5059496;28;20441;-70
2022/09/06 03:10:03;;;;;;;0.00;0.00;;;16.90;99.90;;;;;;5059263;28;20484;-72
2022/09/06 03:12:31;;;;;;;0.00;0.00;;;16.80;99.90;;;;;;5058560;28;20624;-72
2022/09/06 03:14:58;;;;;;;0.00;0.00;;;16.80;99.90;;;;;;5058456;28;20517;-71
2022/09/06 03:17:26;;;;;;;0.00;0.00;;;16.80;99.90;;;;;;5058300;28;21104;-71
2022/09/06 03:19:54;;;;;;;0.00;0.00;;;16.80;99.90;;;;;;5058105;28;20455;-72
2022/09/06 03:22:23;;;;;;;0.00;0.00;;;16.80;99.90;;;;;;5059186;28;20455;-71
2022/09/06 03:24:51;;;;;;;0.00;0.00;;;16.80;99.90;;;;;;5060282;28;20491;-71
2022/09/06 03:27:19;;;;;;;0.00;0.00;;;16.80;99.90;;;;;;5058325;28;20439;-71
2022/09/06 03:29:46;;;;;;;0.00;0.00;;;16.80;99.90;;;;;;5057957;28;20493;-71
2022/09/06 03:32:14;;;;;;;0.00;0.00;;;16.80;99.90;;;;;;5058276;28;20443;-72
2022/09/06 03:34:42;;;;;;;0.00;0.00;;;16.90;99.90;;;;;;5057948;28;20747;-72
2022/09/06 03:37:10;;;;;;;0.00;0.00;;;16.90;99.90;;;;;;5058112;28;20849;-71
2022/09/06 03:39:39;;;;;;;0.00;0.00;;;16.80;99.90;;;;;;5057683;28;20550;-72
2022/09/06 03:42:07;;;;;;;0.00;0.00;;;16.90;99.90;;;;;;5058163;28;20444;-72
2022/09/06 03:44:35;;;;;;;0.00;0.00;;;16.90;99.90;;;;;;5061073;28;20445;-71
2022/09/06 03:47:03;;;;;;;0.00;0.00;;;16.80;99.90;;;;;;5061459;28;20450;-71
2022/09/06 03:49:31;;;;;;;0.00;0.00;;;16.80;99.90;;;;;;5061154;28;21031;-71
2022/09/06 03:51:59;;;;;;;0.00;0.00;;;16.90;99.90;;;;;;5062421;28;20509;-71
2022/09/06 03:54:27;;;;;;;0.00;0.00;;;16.90;99.90;;;;;;5062528;28;20527;-71
2022/09/06 03:56:57;;;;;;;0.00;0.00;;;16.80;99.90;;;;;;5061559;28;20451;-71
2022/09/06 03:59:24;;;;;;;0.00;0.00;;;16.90;99.90;;;;;;5060971;28;20459;-71
2022/09/06 04:01:52;;;;;;;0.00;0.00;;;16.90;99.90;;;;;;5061817;28;20624;-71
2022/09/06 04:04:20;;;;;;;0.00;0.00;;;16.80;99.90;;;;;;5061144;28;20827;-70
2022/09/06 04:06:48;;;;;;;0.00;0.00;;;16.80;99.90;;;;;;5061588;28;20822;-70
2022/09/06 04:09:16;;;;;;;0.00;0.00;;;16.90;99.90;;;;;;5061380;28;21035;-71
2022/09/06 04:11:44;;;;;;;0.00;0.00;;;16.90;99.90;;;;;;5061256;28;20439;-71
2022/09/06 04:14:13;;;;;;;0.00;0.00;;;16.80;99.90;;;;;;5061509;28;20459;-70
2022/09/06 04:16:41;;;;;;;0.00;0.00;;;16.80;99.90;;;;;;5061638;28;20445;-70
2022/09/06 04:19:09;;;;;;;0.00;0.00;;;16.80;99.90;;;;;;5061034;28;20454;-70
2022/09/06 04:21:37;;;;;;;0.00;0.00;;;16.80;99.90;;;;;;5061311;28;20431;-70
2022/09/06 04:24:05;;;;;;;0.00;0.00;;;16.80;99.90;;;;;;5061794;28;20987;-69
2022/09/06 04:26:34;;;;;;;0.00;0.00;;;16.70;99.90;;;;;;5061119;28;20484;-70
2022/09/06 04:29:01;;;;;;;0.00;0.00;;;16.80;99.90;;;;;;5061723;28;20459;-71
2022/09/06 04:31:31;;;;;;;0.00;0.00;;;16.80;99.90;;;;;;5062285;28;20443;-75
2022/09/06 04:33:58;;;;;;;0.00;0.00;;;16.70;99.90;;;;;;5072600;28;20455;-80
2022/09/06 04:36:29;;;;;;;0.00;0.00;;;16.70;99.90;;;;;;5077067;28;20729;-83
2022/09/06 04:38:57;;;;;;;0.00;0.00;;;16.70;99.90;;;;;;5077938;28;20459;-82
2022/09/06 04:41:25;;;;;;;0.00;0.00;;;16.80;99.90;;;;;;5073205;28;21001;-83
2022/09/06 04:43:52;;;;;;;0.00;0.00;;;16.80;99.90;;;;;;5068179;28;20451;-83
2022/09/06 04:46:23;;;;;;;0.00;0.00;;;16.80;99.90;;;;;;5068809;28;20467;-83
2022/09/06 04:48:55;;;;;;;0.00;0.00;;;16.80;99.90;;;;;;5083621;28;20605;-82
2022/09/06 04:51:24;;;;;;;0.00;0.00;;;16.70;99.90;;;;;;5075381;28;20458;-84
2022/09/06 04:53:53;;;;;;;0.00;0.00;;;16.70;99.80;;;;;;5066668;28;20431;-78
2022/09/06 04:56:24;;;;;;;0.00;0.00;;;16.70;99.90;;;;;;5062771;28;20478;-80
2022/09/06 04:58:53;;;;;;;0.00;0.00;;;16.70;99.80;;;;;;5061323;28;20807;-79
2022/09/06 05:01:21;;;;;;;0.00;0.00;;;16.70;99.50;;;;;;5062928;28;20447;-78
2022/09/06 05:03:49;;;;;;;0.00;0.00;;;16.70;99.70;;;;;;5062578;28;20790;-79
2022/09/06 05:06:25;;;;;;;0.00;0.00;;;16.70;99.70;;;;;;5063020;28;20948;-79
2022/09/06 05:08:53;;;;;;;0.00;0.00;;;16.70;99.60;;;;;;5067290;28;20546;-75
2022/09/06 05:11:22;;;;;;;0.00;0.00;;;16.60;99.90;;;;;;5070030;28;20810;-79
2022/09/06 05:13:50;;;;;;;0.00;0.00;;;16.60;99.80;;;;;;5078119;28;20452;-76
2022/09/06 05:16:18;;;;;;;0.00;0.00;;;16.70;99.60;;;;;;5069428;28;20562;-79
2022/09/06 05:18:46;;;;;;;0.00;0.00;;;16.60;99.60;;;;;;5056240;28;20545;-81
2022/09/06 05:21:15;;;;;;;0.00;0.00;;;16.70;99.50;;;;;;5075890;28;20468;-81
2022/09/06 05:23:47;;;;;;;0.00;0.00;;;16.70;99.50;;;;;;5063238;28;20443;-80
2022/09/06 05:26:18;;;;;;;0.00;0.00;;;16.70;99.30;;;;;;5058682;28;20887;-79
2022/09/06 05:28:46;;;;;;;0.00;0.00;;;16.70;99.90;;;;;;5053567;28;20571;-79
2022/09/06 05:31:25;;;;;;;0.00;0.00;;;16.70;99.60;;;;;;5056020;28;20474;-77
2022/09/06 05:33:56;;;;;;;0.00;0.00;;;16.70;99.50;;;;;;5059665;28;20547;-82
2022/09/06 05:36:25;;;;;;;0.00;0.00;;;16.70;99.30;;;;;;5052651;28;20428;-83
2022/09/06 05:38:55;;;;;;;0.00;0.00;;;16.70;99.30;;;;;;5052928;28;20472;-81
2022/09/06 05:41:26;;;;;;;0.00;0.00;;;16.80;99.30;;;;;;5066602;28;20466;-83
2022/09/06 05:43:54;;;;;;;0.00;0.00;;;16.80;99.60;;;;;;5080391;28;20467;-83
2022/09/06 05:46:23;;;;;;;0.00;0.00;;;16.80;99.30;;;;;;5078204;28;20420;-82
2022/09/06 05:48:54;;;;;;;0.00;0.00;;;16.90;99.30;;;;;;5083390;28;20741;-83
2022/09/06 05:51:23;;;;;;;0.00;0.00;;;16.90;99.30;;;;;;5082562;28;20557;-83
2022/09/06 05:53:52;;;;;;;0.00;0.00;;;16.90;99.00;;;;;;5080086;28;20461;-82
2022/09/06 05:56:22;;;;;;;0.00;0.00;;;17.00;99.10;;;;;;5072586;28;20786;-81
2022/09/06 05:58:50;;;;;;;0.00;0.00;;;17.00;99.00;;;;;;5074063;28;20981;-76
2022/09/06 06:01:19;;;;;;;0.00;0.00;;;17.00;99.20;;;;;;5075586;28;20651;-76
2022/09/06 06:03:51;;;;;;;0.00;0.00;;;17.10;99.10;;;;;;5060519;28;21088;-71
2022/09/06 06:06:20;;;;;;;0.00;0.00;;;17.10;99.00;;;;;;5051417;28;20461;-69
2022/09/06 06:08:48;;;;;;;0.00;0.00;;;17.20;99.00;;;;;;5067621;28;20517;-70
2022/09/06 06:11:17;;;;;;;0.00;0.00;;;17.20;98.90;;;;;;5046573;28;20475;-69
2022/09/06 06:13:46;;;;;;;0.00;0.00;;;17.20;98.90;;;;;;5051906;28;20531;-69
2022/09/06 06:16:19;;;;;;;0.00;0.00;;;17.30;99.10;;;;;;5057034;28;20450;-72
2022/09/06 06:18:47;;;;;;;0.00;0.00;;;17.40;98.90;;;;;;5057614;28;21220;-69
2022/09/06 06:21:21;;;;;;;0.00;0.00;;;17.40;98.90;;;;;;5050967;28;20431;-69
2022/09/06 06:23:51;;;;;;;0.00;0.00;;;17.40;98.70;;;;;;5056375;28;20448;-69
2022/09/06 06:26:19;;;;;;;0.00;0.00;;;17.40;98.70;;;;;;5059081;28;20435;-69
2022/09/06 06:28:48;;;;;;;0.00;0.00;;;17.50;98.60;;;;;;5059927;28;20554;-69
2022/09/06 06:31:18;;;;;;;0.00;0.00;;;17.50;98.60;;;;;;5058185;28;20815;-69
2022/09/06 06:33:46;;;;;;;0.00;0.00;;;17.50;98.70;;;;;;5058974;28;20443;-69
2022/09/06 06:36:20;;;;;;;0.00;0.00;;;17.50;98.70;;;;;;5049063;28;20456;-69
2022/09/06 06:38:52;;;;;;;0.00;0.00;;;17.50;98.70;;;;;;5038952;28;20490;-69
2022/09/06 06:41:22;;;;;;;0.00;0.00;;;17.50;98.70;;;;;;5054202;28;20844;-70
2022/09/06 06:43:53;;;;;;;0.00;0.00;;;17.60;98.90;;;;;;5060270;28;20440;-69
2022/09/06 06:46:22;;;;;;;0.00;0.00;;;17.60;98.80;;;;;;5058737;28;20937;-70
2022/09/06 06:48:50;;;;;;;0.00;0.00;;;17.60;98.70;;;;;;5058116;28;20491;-69
2022/09/06 06:51:23;;;;;;;0.00;0.00;;;17.60;98.70;;;;;;5056578;28;20580;-69
2022/09/06 06:53:51;;;;;;;0.00;0.00;;;17.60;98.80;;;;;;5038566;28;20449;-71
2022/09/06 06:56:21;;;;;;;0.00;0.00;;;17.50;98.70;;;;;;5049585;28;20477;-69
2022/09/06 06:58:51;;;;;;;0.00;0.00;;;17.50;98.80;;;;;;5064296;28;20479;-70
2022/09/06 07:01:21;;;;;;;0.00;0.00;;;17.60;98.80;;;;;;5059430;28;20445;-70
2022/09/06 07:03:50;;;;;;;0.00;0.00;;;17.60;98.70;;;;;;5058804;28;20530;-71
2022/09/06 07:06:19;;;;;;;0.00;0.00;;;17.50;98.80;;;;;;5050427;28;20449;-68
2022/09/06 07:08:47;;;;;;;0.00;0.00;;;17.50;99.00;;;;;;5047127;28;20502;-71
2022/09/06 07:11:17;;;;;;;0.00;0.00;;;17.50;99.00;;;;;;5050810;28;20476;-70
2022/09/06 07:13:49;;;;;;;0.00;0.00;;;17.60;99.10;;;;;;5042735;28;20542;-68
2022/09/06 07:16:20;;;;;;;0.00;0.00;;;17.60;99.20;;;;;;5048819;28;20453;-68
2022/09/06 07:18:51;;;;;;;0.00;0.00;;;17.60;99.20;;;;;;5058874;28;20844;-66
2022/09/06 07:21:24;;;;;;;0.00;0.00;;;17.60;99.20;;;;;;5060778;28;20437;-68
2022/09/06 07:24:08;;;;;;;0.00;0.00;;;17.80;99.20;;;;;;5060723;28;21034;-72
2022/09/06 07:26:38;;;;;;;0.00;0.00;;;17.80;99.20;;;;;;5060677;28;20469;-71
2022/09/06 07:29:07;;;;;;;0.00;0.00;;;17.80;99.50;;;;;;5060500;28;20646;-71
2022/09/06 07:31:38;;;;;;;0.00;0.00;;;17.80;99.50;;;;;;5062212;28;20477;-72
2022/09/06 07:34:26;;;;;;;0.00;0.00;;;17.90;99.20;;;;;;5064078;28;20470;-72
2022/09/06 07:36:55;;;;;;;0.00;0.00;;;17.90;99.60;;;;;;5062580;28;21090;-72
2022/09/06 07:39:23;;;;;;;0.00;0.00;;;17.90;99.40;;;;;;5061617;28;20474;-72
2022/09/06 07:41:51;;;;;;;0.00;0.00;;;18.00;99.50;;;;;;5061392;28;20431;-71
2022/09/06 07:44:19;;;;;;;0.00;0.00;;;18.10;99.50;;;;;;5061509;28;20435;-71
2022/09/06 07:46:48;;;;;;;0.00;0.00;;;18.10;99.50;;;;;;5072096;28;20440;-71
2022/09/06 07:49:16;;;;;;;0.00;0.00;;;18.10;99.20;;;;;;5053660;28;20749;-72
2022/09/06 07:51:44;;;;;;;0.00;0.00;;;18.20;99.40;;;;;;5048513;28;20512;-73
2022/09/06 07:54:12;;;;;;;0.00;0.00;;;18.20;99.30;;;;;;5042007;28;20528;-72
2022/09/06 07:56:57;;;;;;;0.00;0.00;;;18.20;99.30;;;;;;5040936;28;20470;-70
2022/09/06 07:59:26;;;;;;;0.00;0.00;;;18.20;99.40;;;;;;5040891;28;20475;-71
2022/09/06 08:01:55;;;;;;;0.00;0.00;;;18.30;99.40;;;;;;5041124;28;20506;-72
2022/09/06 08:04:23;;;;;;;0.00;0.00;;;18.30;99.50;;;;;;5041354;28;20529;-72
2022/09/06 08:06:52;;;;;;;0.00;0.00;;;18.30;99.60;;;;;;5044912;28;21119;-70
2022/09/06 08:09:40;;;;;;;0.00;0.00;;;18.40;99.50;;;;;;5040937;28;20467;-72
2022/09/06 08:12:08;;;;;;;0.00;0.00;;;18.40;99.80;;;;;;5041126;28;20553;-72
2022/09/06 08:14:36;;;;;;;0.00;0.00;;;18.50;99.70;;;;;;5041844;28;20442;-72
2022/09/06 08:17:05;;;;;;;0.00;0.00;;;18.60;99.70;;;;;;5041646;28;20994;-72
2022/09/06 08:22:15;;;;;;;0.00;0.00;;;18.70;99.50;;;;;;5049154;28;20484;-73
2022/09/06 08:24:43;;;;;;;0.00;0.00;;;18.80;99.60;;;;;;5062123;28;20496;-72
2022/09/06 08:27:11;;;;;;;0.00;0.00;;;18.90;99.60;;;;;;5062527;28;21145;-73
2022/09/06 08:29:39;;;;;;;0.00;0.00;;;19.00;99.60;;;;;;5059996;28;20455;-72
2022/09/06 08:32:09;;;;;;;0.00;0.00;;;19.00;99.70;;;;;;5070389;28;20483;-71
2022/09/06 08:34:40;;;;;;;0.00;0.00;;;19.10;99.80;;;;;;5069931;28;20500;-72
2022/09/06 08:37:08;;;;;;;0.00;0.00;;;19.30;99.60;;;;;;5068678;28;20752;-71
2022/09/06 08:39:36;;;;;;;0.00;0.00;;;19.30;99.90;;;;;;5067687;28;20461;-73
2022/09/06 08:42:05;;;;;;;0.00;0.00;;;19.40;99.90;;;;;;5067048;28;20454;-72
2022/09/06 08:44:37;;;;;;;0.00;0.00;;;19.50;99.90;;;;;;5067480;28;20688;-72
2022/09/06 08:47:22;;;;;;;0.00;0.00;;;19.50;99.90;;;;;;5069109;28;20718;-73
2022/09/06 08:49:53;;;;;;;0.00;0.00;;;19.70;99.80;;;;;;5070424;28;20451;-71
2022/09/06 08:52:55;;;;;;;0.00;0.00;;;19.80;99.70;;;;;;5066781;28;20504;-71
2022/09/06 08:55:48;;;;;;;0.00;0.00;;;19.90;99.70;;;;;;5058354;28;20575;-71
2022/09/06 08:58:34;;;;;;;0.00;0.00;;;19.90;99.60;;;;;;5073461;28;20438;-73
2022/09/06 09:01:05;;;;;;;0.00;0.00;;;19.90;99.80;;;;;;5052297;28;20448;-68
2022/09/06 09:03:37;;;;;;;0.00;0.00;;;20.00;99.60;;;;;;5039820;28;20428;-67
2022/09/06 09:06:08;;;;;;;0.00;0.00;;;20.10;99.70;;;;;;5057588;28;20447;-67
2022/09/06 09:08:45;;;;;;;0.00;0.00;;;20.10;99.70;;;;;;5064861;28;21002;-68
2022/09/06 09:11:16;;;;;;;0.00;0.00;;;20.10;99.50;;;;;;5059734;28;20441;-69
2022/09/06 09:13:58;;;;;;;0.00;0.00;;;20.10;99.60;;;;;;5059505;28;20919;-69
2022/09/06 09:16:26;;;;;;;0.00;0.00;;;20.10;99.60;;;;;;5045676;28;20509;-69
2022/09/06 09:18:58;;;;;;;0.00;0.00;;;20.10;99.60;;;;;;5041230;28;20504;-69
2022/09/06 09:21:28;;;;;;;0.00;0.00;;;20.10;99.80;;;;;;5044178;28;20476;-67
2022/09/06 09:24:01;;;;;;;0.00;0.00;;;20.00;99.80;;;;;;5042719;28;20467;-68
2022/09/06 09:26:35;;;;;;;0.00;0.00;;;20.00;99.90;;;;;;5055297;28;20562;-67
2022/09/06 09:29:06;;;;;;;0.00;0.00;;;20.10;99.90;;;;;;5054649;28;20459;-67
2022/09/06 09:31:35;;;;;;;0.00;0.00;;;20.20;99.90;;;;;;5058416;28;20430;-67
2022/09/06 09:34:05;;;;;;;0.00;0.00;;;20.20;99.90;;;;;;5057558;28;20525;-67
2022/09/06 09:36:33;;;;;;;0.00;0.00;;;20.20;99.90;;;;;;5049553;28;20774;-67
2022/09/06 09:39:09;;;;;;;0.00;0.00;;;20.30;99.90;;;;;;5065563;28;20535;-67
2022/09/06 09:41:38;;;;;;;0.00;0.00;;;20.30;99.90;;;;;;5064804;28;20478;-70
2022/09/06 09:44:10;;;;;;;0.00;0.00;;;20.30;99.90;;;;;;5072132;28;20489;-70
2022/09/06 09:46:40;;;;;;;0.00;0.00;;;20.20;99.90;;;;;;5049667;28;20451;-70
2022/09/06 09:49:12;;;;;;;0.00;0.00;;;20.10;99.90;;;;;;5047215;28;20566;-70
2022/09/06 09:51:41;;;;;;;0.00;0.00;;;20.10;99.90;;;;;;5052672;28;20448;-70
2022/09/06 09:54:11;;;;;;;0.00;0.00;;;20.20;99.90;;;;;;5050449;28;20602;-70
2022/09/06 09:56:55;;;;;;;0.00;0.00;;;20.20;99.90;;;;;;5046546;28;20938;-71
2022/09/06 09:59:27;;;;;;;0.00;0.00;;;20.20;99.90;;;;;;5045832;28;20475;-71
2022/09/06 10:01:58;;;;;;;0.00;0.00;;;20.30;99.90;;;;;;5046331;28;21273;-71
2022/09/06 10:04:35;;;;;;;0.00;0.00;;;20.30;99.90;;;;;;5047320;28;20444;-69
2022/09/06 10:07:15;;;;;;;0.00;0.00;;;20.30;99.90;;;;;;5050229;28;20764;-71
2022/09/06 10:09:45;;;;;;;0.00;0.00;;;20.30;99.90;;;;;;5047542;28;20828;-70
2022/09/06 10:12:18;;;;;;;0.00;0.00;;;20.30;99.90;;;;;;5054504;28;20954;-69
2022/09/06 10:14:47;;;;;;;0.00;0.00;;;20.40;99.90;;;;;;5055548;28;20596;-69
2022/09/06 10:17:20;;;;;;;0.00;0.00;;;20.40;99.90;;;;;;5049391;28;20453;-69
2022/09/06 10:19:50;;;;;;;0.00;0.00;;;20.40;99.90;;;;;;5048749;28;21045;-69
2022/09/06 10:22:29;;;;;;;0.00;0.00;;;20.40;99.90;;;;;;5064899;28;20438;-69
2022/09/06 10:25:21;;;;;;;0.00;0.00;;;20.40;99.90;;;;;;5059358;28;20454;-69
2022/09/06 10:28:27;;;;;;;0.00;0.00;;;20.40;99.90;;;;;;5058247;28;20677;-68
2022/09/06 10:31:12;;;;;;;0.00;0.00;;;20.40;99.90;;;;;;5048491;28;20475;-73
2022/09/06 10:33:56;;;;;;;0.00;0.00;;;20.30;99.90;;;;;;5051862;28;20562;-68
2022/09/06 10:36:31;;;;;;;0.00;0.00;;;20.40;99.90;;;;;;5051090;28;20718;-67
2022/09/06 10:39:04;;;;;;;0.00;0.00;;;20.40;99.90;;;;;;5043116;28;20688;-69
2022/09/06 10:41:46;;;;;;;0.00;0.00;;;20.40;99.90;;;;;;5052675;28;20840;-69
2022/09/06 10:44:26;;;;;;;0.00;0.00;;;20.40;99.90;;;;;;5045622;28;20528;-68
2022/09/06 10:47:03;;;;;;;0.00;0.00;;;20.50;99.90;;;;;;5053883;28;20438;-69
2022/09/06 10:49:33;;;;;;;0.00;0.00;;;20.40;99.90;;;;;;5056552;28;21039;-68
2022/09/06 10:52:07;;;;;;;0.00;0.00;;;20.50;99.90;;;;;;5052285;28;21104;-68
2022/09/06 10:54:39;;;;;;;0.00;0.00;;;20.40;99.90;;;;;;5063012;28;20841;-69
2022/09/06 10:57:12;;;;;;;0.00;0.00;;;20.50;99.90;;;;;;5049550;28;20451;-68
2022/09/06 11:00:05;;;;;;;0.00;0.00;;;20.50;99.90;;;;;;5062442;28;20479;-68
2022/09/06 11:02:40;;;;;;;0.00;0.00;;;20.60;99.90;;;;;;5058757;28;20472;-67
2022/09/06 11:05:12;;;;;;;0.00;0.00;;;20.60;99.90;;;;;;5056289;28;20447;-66
2022/09/06 11:08:02;;;;;;;0.00;0.00;;;20.70;99.90;;;;;;5059036;28;20444;-69
2022/09/06 11:10:54;;;;;;;0.00;0.00;;;20.80;99.90;;;;;;5055993;28;20532;-68
2022/09/06 11:13:24;;;;;;;0.00;0.00;;;20.70;99.70;;;;;;5062795;28;20982;-69
2022/09/06 11:15:57;;;;;;;0.00;0.00;;;20.70;99.40;;;;;;5081411;28;20449;-69
2022/09/06 11:18:31;;;;;;;0.00;0.00;;;20.80;99.50;;;;;;5088635;28;21015;-69
2022/09/06 11:21:13;;;;;;;0.00;0.00;;;20.90;99.50;;;;;;5061889;28;20930;-69
2022/09/06 11:23:51;;;;;;;0.00;0.00;;;20.90;99.70;;;;;;5047045;28;20444;-68
2022/09/06 11:26:34;;;;;;;0.00;0.00;;;21.00;99.70;;;;;;5048775;28;20550;-67
2022/09/06 11:29:06;;;;;;;0.00;0.00;;;21.00;99.30;;;;;;5061110;28;20760;-68
2022/09/06 11:31:49;;;;;;;0.00;0.00;;;21.00;99.40;;;;;;5062205;28;20447;-68
2022/09/06 11:34:39;;;;;;;0.00;0.00;;;21.10;99.40;;;;;;5043447;28;20483;-68
2022/09/06 11:37:23;;;;;;;0.00;0.00;;;21.10;99.30;;;;;;5062397;28;20445;-67
2022/09/06 11:40:05;;;;;;;0.00;0.00;;;21.20;99.40;;;;;;5054746;28;21169;-68
2022/09/06 11:43:13;;;;;;;0.00;0.00;;;21.20;99.30;;;;;;5051445;28;20578;-68
2022/09/06 11:45:45;;;;;;;0.00;0.00;;;21.20;99.20;;;;;;5041560;28;20448;-68
2022/09/06 11:49:00;;;;;;;0.00;0.00;;;21.30;99.40;;;;;;5054006;28;20481;-68
2022/09/06 11:51:34;;;;;;;0.00;0.00;;;21.30;99.70;;;;;;5055317;28;20642;-67
2022/09/06 11:54:25;;;;;;;0.00;0.00;;;21.40;99.50;;;;;;5059837;28;20489;-68
2022/09/06 11:57:01;;;;;;;0.00;0.00;;;21.50;99.50;;;;;;5041074;28;20450;-68
2022/09/06 11:59:41;;;;;;;0.00;0.00;;;21.50;99.40;;;;;;5059756;28;20478;-68
2022/09/06 12:02:36;;;;;;;0.00;0.00;;;21.60;99.30;;;;;;5041231;28;20543;-68
2022/09/06 12:05:21;;;;;;;0.00;0.00;;;21.60;99.20;;;;;;5050953;28;20440;-66
2022/09/06 12:08:12;;;;;;;0.00;0.00;;;21.60;99.10;;;;;;5052296;28;20527;-68
2022/09/06 12:10:55;;;;;;;0.00;0.00;;;21.60;99.20;;;;;;5058936;28;21009;-71
2022/09/06 12:13:52;;;;;;;0.00;0.00;;;21.60;99.50;;;;;;5057673;28;20479;-73
2022/09/06 12:16:20;;;;;;;0.00;0.00;;;21.50;99.80;;;;;;5040784;28;20452;-72
2022/09/06 12:19:00;;;;;;;0.00;0.00;;;21.50;99.90;;;;;;5055840;28;20467;-69
2022/09/06 12:21:36;;;;;;;0.00;0.00;;;21.60;99.90;;;;;;5060323;28;20438;-71
2022/09/06 12:24:05;;;;;;;0.00;0.00;;;21.60;99.90;;;;;;5059982;28;21029;-71
2022/09/06 12:26:50;;;;;;;0.00;0.00;;;21.70;99.90;;;;;;5040986;28;20459;-67
2022/09/06 12:29:26;;;;;;;0.00;0.00;;;21.70;99.90;;;;;;5040842;28;20483;-68
2022/09/06 12:31:56;;;;;;;0.00;0.00;;;21.70;99.90;;;;;;5041076;28;20440;-68
2022/09/06 12:34:30;;;;;;;0.00;0.00;;;21.80;99.90;;;;;;5040607;28;20483;-68
2022/09/06 12:37:02;;;;;;;0.00;0.00;;;21.70;99.90;;;;;;5055153;28;20829;-67
2022/09/06 12:39:30;;;;;;;0.00;0.00;;;21.70;99.90;;;;;;5053850;28;20467;-69
2022/09/06 12:42:01;;;;;;;0.00;0.00;;;21.60;99.90;;;;;;5051353;28;21113;-68
2022/09/06 12:44:34;;;;;;;0.00;0.00;;;21.70;99.90;;;;;;5050578;28;20443;-67
2022/09/06 12:47:09;;;;;;;0.00;0.00;;;21.70;99.90;;;;;;5060307;28;20509;-68
2022/09/06 12:49:37;;;;;;;0.00;0.00;;;21.60;99.90;;;;;;5062344;28;20462;-68
2022/09/06 12:52:11;;;;;;;0.00;0.00;;;21.60;99.90;;;;;;5064589;28;20475;-68
2022/09/06 12:54:48;;;;;;;0.00;0.00;;;21.60;99.90;;;;;;5051033;28;21096;-69
2022/09/06 12:57:19;;;;;;;0.00;0.00;;;21.60;99.90;;;;;;5065889;28;21104;-70
2022/09/06 12:59:53;;;;;;;0.00;0.00;;;21.70;99.90;;;;;;5062729;28;20467;-69
2022/09/06 13:02:27;;;;;;;0.00;0.00;;;21.60;99.90;;;;;;5051781;28;20444;-70
2022/09/06 13:05:02;;;;;;;0.00;0.00;;;21.70;99.90;;;;;;5042490;28;20464;-68
2022/09/06 13:07:35;;;;;;;0.00;0.00;;;21.70;99.90;;;;;;5041184;28;20668;-71
2022/09/06 13:10:03;;;;;;;0.00;0.00;;;21.70;99.90;;;;;;5060344;28;20503;-70
2022/09/06 13:12:33;;;;;;;0.00;0.00;;;21.70;99.90;;;;;;5060845;28;21280;-71
2022/09/06 13:15:08;;;;;;;0.00;0.00;;;21.80;99.70;;;;;;5060764;28;20479;-69
2022/09/06 13:17:39;;;;;;;0.00;0.00;;;21.80;99.80;;;;;;5060684;28;20484;-68
2022/09/06 13:20:15;;;;;;;0.00;0.00;;;21.80;99.80;;;;;;5061229;28;20463;-68
2022/09/06 13:22:46;;;;;;;0.00;0.00;;;21.80;99.70;;;;;;5060543;28;21057;-68